Time;durP1;ratioP1;P1;durP2;ratioP2;P2;SDS_P1;SDS_P2;PMS_P1;PMS_P2;Temp;Humidity;BMP_temperature;BMP_pressure;BME280_temperature;BME280_humidity;BME280_pressure;Samples;Min_cycle;Max_cycle;Signal;HPM_P1;HPM_P2
2021/06/21 00:01:30;;;;;;;;;;;27.10;50.10;;;;;;1578597;74;1155;-67
2021/06/21 00:03:32;;;;;;;;;;;27.10;49.90;;;;;;1579434;74;695;-67
2021/06/21 00:05:34;;;;;;;;;;;27.10;50.00;;;;;;1580244;75;761;-67
2021/06/21 00:07:35;;;;;;;;;;;27.10;50.10;;;;;;1581290;75;797;-68
2021/06/21 00:09:39;;;;;;;;;;;27.10;50.00;;;;;;1577743;74;735;-67
2021/06/21 00:11:41;;;;;;;;;;;27.10;50.00;;;;;;1578750;74;1985;-68
2021/06/21 00:13:43;;;;;;;;;;;27.10;50.00;;;;;;1578572;75;744;-68
2021/06/21 00:15:45;;;;;;;;;;;27.10;50.00;;;;;;1579178;74;783;-68
2021/06/21 00:17:47;;;;;;;;;;;27.10;50.10;;;;;;1581031;74;1959;-67
2021/06/21 00:19:48;;;;;;;;;;;27.10;50.00;;;;;;1580982;74;717;-68
2021/06/21 00:21:50;;;;;;;;;;;27.00;49.70;;;;;;1580715;74;1088;-68
2021/06/21 00:23:52;;;;;;;;;;;27.10;49.70;;;;;;1577345;74;862;-66
2021/06/21 00:25:54;;;;;;;;;;;27.10;49.70;;;;;;1577728;74;761;-68
2021/06/21 00:27:56;;;;;;;;;;;27.20;49.80;;;;;;1578999;74;762;-68
2021/06/21 00:29:58;;;;;;;;;;;27.20;50.00;;;;;;1579076;74;740;-69
2021/06/21 00:32:00;;;;;;;;;;;27.10;49.60;;;;;;1581186;74;1120;-68
2021/06/21 00:34:02;;;;;;;;;;;27.10;49.80;;;;;;1581121;75;768;-68
2021/06/21 00:36:04;;;;;;;;;;;27.10;49.70;;;;;;1581033;74;847;-69
2021/06/21 00:38:06;;;;;;;;;;;27.00;49.70;;;;;;1578487;74;1921;-65
2021/06/21 00:40:08;;;;;;;;;;;27.10;49.60;;;;;;1580432;74;768;-68
2021/06/21 00:42:10;;;;;;;;;;;27.10;49.40;;;;;;1578590;74;1123;-68
2021/06/21 00:44:12;;;;;;;;;;;27.10;49.40;;;;;;1581192;74;791;-67
2021/06/21 00:46:14;;;;;;;;;;;27.10;49.70;;;;;;1579449;74;756;-68
2021/06/21 00:48:16;;;;;;;;;;;27.00;49.30;;;;;;1577938;74;785;-66
2021/06/21 00:50:18;;;;;;;;;;;27.00;49.30;;;;;;1580152;74;826;-66
2021/06/21 00:52:21;;;;;;;;;;;27.10;49.40;;;;;;1581000;74;1154;-68
2021/06/21 00:54:24;;;;;;;;;;;27.00;49.70;;;;;;1577249;74;764;-68
2021/06/21 00:56:25;;;;;;;;;;;27.00;49.40;;;;;;1575407;74;803;-66
2021/06/21 00:58:27;;;;;;;;;;;27.10;49.40;;;;;;1580190;74;1934;-66
2021/06/21 01:00:29;;;;;;;;;;;27.10;49.50;;;;;;1580669;74;1128;-67
2021/06/21 01:02:31;;;;;;;;;;;27.10;49.40;;;;;;1575898;74;756;-67
2021/06/21 01:04:33;;;;;;;;;;;27.00;49.50;;;;;;1576050;74;794;-67
2021/06/21 01:06:35;;;;;;;;;;;27.10;49.40;;;;;;1572319;74;782;-68
2021/06/21 01:08:37;;;;;;;;;;;27.00;49.30;;;;;;1570954;74;810;-68
2021/06/21 01:10:39;;;;;;;;;;;27.00;49.20;;;;;;1573500;74;1145;-68
2021/06/21 01:12:43;;;;;;;;;;;27.00;48.90;;;;;;1570165;74;730;-67
2021/06/21 01:14:45;;;;;;;;;;;27.00;49.00;;;;;;1572704;74;1935;-66
2021/06/21 01:16:48;;;;;;;;;;;27.00;48.90;;;;;;1570196;74;1937;-68
2021/06/21 01:18:58;;;;;;;;;;;26.90;48.20;;;;;;1571008;74;1891;-69
2021/06/21 01:21:18;;;;;;;;;;;27.00;48.80;;;;;;1569864;74;1121;-67
2021/06/21 01:23:38;;;;;;;;;;;27.00;48.90;;;;;;1571464;74;726;-67
2021/06/21 01:25:44;;;;;;;;;;;27.00;48.90;;;;;;1570673;74;770;-67
2021/06/21 01:27:47;;;;;;;;;;;27.00;49.00;;;;;;1568174;74;924;-66
2021/06/21 01:30:09;;;;;;;;;;;27.00;49.20;;;;;;1571219;74;749;-68
2021/06/21 01:32:19;;;;;;;;;;;27.00;49.10;;;;;;1573298;74;1071;-69
2021/06/21 01:34:21;;;;;;;;;;;26.90;48.30;;;;;;1571390;74;722;-67
2021/06/21 01:36:23;;;;;;;;;;;26.90;48.50;;;;;;1571378;74;771;-67
2021/06/21 01:38:27;;;;;;;;;;;26.90;48.50;;;;;;1568747;74;1930;-68
2021/06/21 01:40:29;;;;;;;;;;;26.90;48.50;;;;;;1569177;74;1185;-69
2021/06/21 01:42:31;;;;;;;;;;;27.00;49.10;;;;;;1571217;74;680;-68
2021/06/21 01:44:34;;;;;;;;;;;27.00;48.90;;;;;;1569935;74;782;-66
2021/06/21 01:46:36;;;;;;;;;;;26.90;48.20;;;;;;1574653;74;793;-66
2021/06/21 01:48:39;;;;;;;;;;;27.00;49.00;;;;;;1564616;74;775;-67
2021/06/21 01:50:41;;;;;;;;;;;27.00;48.90;;;;;;1569994;74;1135;-67
2021/06/21 01:52:43;;;;;;;;;;;26.90;48.20;;;;;;1570815;74;812;-67
2021/06/21 01:54:46;;;;;;;;;;;26.90;48.40;;;;;;1572154;74;752;-67
2021/06/21 01:56:48;;;;;;;;;;;26.90;48.10;;;;;;1564173;74;754;-67
2021/06/21 01:58:50;;;;;;;;;;;27.00;48.80;;;;;;1566829;74;1940;-66
2021/06/21 02:00:52;;;;;;;;;;;27.00;48.80;;;;;;1572606;74;1176;-67
2021/06/21 02:02:54;;;;;;;;;;;26.90;48.10;;;;;;1576774;74;801;-67
2021/06/21 02:04:55;;;;;;;;;;;27.10;48.90;;;;;;1566090;74;716;-67
2021/06/21 02:06:57;;;;;;;;;;;27.00;48.70;;;;;;1570815;74;801;-68
2021/06/21 02:09:00;;;;;;;;;;;27.00;48.80;;;;;;1570710;74;845;-68
2021/06/21 02:11:02;;;;;;;;;;;26.90;48.10;;;;;;1567401;74;1148;-65
2021/06/21 02:13:04;;;;;;;;;;;27.00;48.90;;;;;;1566987;74;769;-68
2021/06/21 02:15:07;;;;;;;;;;;27.00;48.90;;;;;;1566391;74;727;-69
2021/06/21 02:17:09;;;;;;;;;;;27.00;48.80;;;;;;1571174;74;1918;-64
2021/06/21 02:19:11;;;;;;;;;;;27.00;48.90;;;;;;1574040;74;756;-65
2021/06/21 02:21:13;;;;;;;;;;;27.00;49.00;;;;;;1577464;74;1153;-67
2021/06/21 02:23:18;;;;;;;;;;;26.90;48.30;;;;;;1571514;74;780;-68
2021/06/21 02:25:20;;;;;;;;;;;27.00;49.40;;;;;;1572931;74;759;-67
2021/06/21 02:27:22;;;;;;;;;;;27.00;49.00;;;;;;1570285;74;773;-68
2021/06/21 02:29:24;;;;;;;;;;;26.90;48.40;;;;;;1571773;74;803;-66
2021/06/21 02:31:26;;;;;;;;;;;26.90;48.40;;;;;;1571523;74;1147;-66
2021/06/21 02:33:28;;;;;;;;;;;26.90;48.20;;;;;;1573803;74;782;-67
2021/06/21 02:35:30;;;;;;;;;;;26.90;48.00;;;;;;1569571;74;810;-67
2021/06/21 02:37:32;;;;;;;;;;;26.90;47.90;;;;;;1572092;74;1941;-67
2021/06/21 02:39:34;;;;;;;;;;;26.90;48.00;;;;;;1572017;74;792;-69
2021/06/21 02:41:36;;;;;;;;;;;27.00;48.60;;;;;;1571190;74;1080;-66
2021/06/21 02:43:38;;;;;;;;;;;26.90;47.70;;;;;;1578649;74;720;-67
2021/06/21 02:45:40;;;;;;;;;;;26.90;47.70;;;;;;1571952;74;699;-66
2021/06/21 02:47:43;;;;;;;;;;;26.90;47.80;;;;;;1568299;74;753;-67
2021/06/21 02:49:45;;;;;;;;;;;26.90;47.70;;;;;;1568539;74;687;-66
2021/06/21 02:52:05;;;;;;;;;;;26.80;47.70;;;;;;1581326;74;1136;-67
2021/06/21 02:54:12;;;;;;;;;;;26.90;47.80;;;;;;1571523;74;807;-68
2021/06/21 02:56:32;;;;;;;;;;;26.80;47.70;;;;;;1571702;74;729;-69
2021/06/21 02:58:41;;;;;;;;;;;26.80;47.80;;;;;;1568761;74;1999;-73
2021/06/21 03:00:43;;;;;;;;;;;26.80;48.50;;;;;;1565004;74;1165;-70
2021/06/21 03:02:45;;;;;;;;;;;26.90;48.80;;;;;;1572420;74;662;-74
2021/06/21 03:04:47;;;;;;;;;;;26.80;48.50;;;;;;1569988;74;655;-72
2021/06/21 03:06:49;;;;;;;;;;;26.90;48.60;;;;;;1571102;74;754;-73
2021/06/21 03:08:51;;;;;;;;;;;27.00;49.10;;;;;;1570338;74;791;-72
2021/06/21 03:10:53;;;;;;;;;;;26.90;48.30;;;;;;1574733;74;1097;-71
2021/06/21 03:12:55;;;;;;;;;;;26.90;48.20;;;;;;1572736;74;927;-71
2021/06/21 03:14:57;;;;;;;;;;;27.00;48.90;;;;;;1570697;74;733;-70
2021/06/21 03:16:59;;;;;;;;;;;27.00;48.90;;;;;;1571261;74;746;-72
2021/06/21 03:19:00;;;;;;;;;;;26.90;48.10;;;;;;1569606;74;1931;-72
2021/06/21 03:21:02;;;;;;;;;;;26.90;48.10;;;;;;1574478;74;1154;-71
2021/06/21 03:23:04;;;;;;;;;;;27.00;48.80;;;;;;1564714;74;665;-72
2021/06/21 03:25:07;;;;;;;;;;;26.90;48.10;;;;;;1570010;74;728;-71
2021/06/21 03:27:08;;;;;;;;;;;26.90;48.30;;;;;;1569560;74;655;-72
2021/06/21 03:29:17;;;;;;;;;;;27.00;48.90;;;;;;1560718;74;675;-73
2021/06/21 03:31:19;;;;;;;;;;;27.00;48.70;;;;;;1560933;74;1155;-72
2021/06/21 03:33:20;;;;;;;;;;;26.90;48.10;;;;;;1573676;74;761;-72
2021/06/21 03:35:22;;;;;;;;;;;26.90;48.10;;;;;;1574332;74;746;-72
2021/06/21 03:37:24;;;;;;;;;;;26.90;48.00;;;;;;1571670;74;739;-71
2021/06/21 03:39:26;;;;;;;;;;;27.00;48.60;;;;;;1572298;74;1943;-71
2021/06/21 03:41:28;;;;;;;;;;;26.90;48.10;;;;;;1573627;74;1133;-73
2021/06/21 03:43:30;;;;;;;;;;;26.90;48.10;;;;;;1570404;74;787;-74
2021/06/21 03:45:32;;;;;;;;;;;26.90;48.10;;;;;;1570980;74;772;-73
2021/06/21 03:47:37;;;;;;;;;;;27.00;48.90;;;;;;1572628;74;699;-72
2021/06/21 03:49:39;;;;;;;;;;;27.00;48.60;;;;;;1569139;74;729;-70
2021/06/21 03:51:41;;;;;;;;;;;27.00;49.00;;;;;;1574823;74;1168;-69
2021/06/21 03:53:43;;;;;;;;;;;27.00;48.90;;;;;;1572195;74;826;-74
2021/06/21 03:55:45;;;;;;;;;;;27.00;48.60;;;;;;1565135;74;781;-73
2021/06/21 03:57:47;;;;;;;;;;;26.90;48.00;;;;;;1568807;74;1938;-72
2021/06/21 03:59:49;;;;;;;;;;;27.00;48.50;;;;;;1562295;74;771;-73
2021/06/21 04:01:51;;;;;;;;;;;26.90;47.90;;;;;;1570440;74;1233;-73
2021/06/21 04:03:58;;;;;;;;;;;27.00;48.50;;;;;;1566504;74;737;-73
2021/06/21 04:05:56;;;;;;;;;;;27.00;48.50;;;;;;1559919;74;1585;-73
2021/06/21 04:07:58;;;;;;;;;;;27.00;48.60;;;;;;1566832;74;788;-73
2021/06/21 04:10:00;;;;;;;;;;;27.00;48.50;;;;;;1568111;74;671;-72
2021/06/21 04:12:02;;;;;;;;;;;26.90;47.80;;;;;;1577141;74;1262;-73
2021/06/21 04:14:04;;;;;;;;;;;26.90;47.70;;;;;;1570017;74;724;-70
2021/06/21 04:16:06;;;;;;;;;;;26.90;47.60;;;;;;1570951;74;629;-72
2021/06/21 04:18:09;;;;;;;;;;;27.00;48.60;;;;;;1571344;74;1922;-73
2021/06/21 04:20:12;;;;;;;;;;;27.00;48.40;;;;;;1560800;74;617;-72
2021/06/21 04:22:14;;;;;;;;;;;26.90;47.70;;;;;;1567744;74;1093;-73
2021/06/21 04:24:16;;;;;;;;;;;27.00;48.40;;;;;;1572561;74;731;-71
2021/06/21 04:26:17;;;;;;;;;;;26.90;47.50;;;;;;1572169;74;796;-71
2021/06/21 04:28:19;;;;;;;;;;;27.00;48.40;;;;;;1575593;74;727;-71
2021/06/21 04:30:22;;;;;;;;;;;27.00;48.20;;;;;;1563692;74;729;-70
2021/06/21 04:32:24;;;;;;;;;;;26.90;47.50;;;;;;1577296;74;1053;-70
2021/06/21 04:34:26;;;;;;;;;;;27.00;48.30;;;;;;1569423;74;714;-73
2021/06/21 04:36:27;;;;;;;;;;;26.90;47.70;;;;;;1572232;74;744;-71
2021/06/21 04:38:29;;;;;;;;;;;26.90;47.50;;;;;;1574885;74;2231;-73
2021/06/21 04:40:32;;;;;;;;;;;26.90;47.40;;;;;;1572851;74;1136;-72
2021/06/21 04:42:34;;;;;;;;;;;26.90;47.40;;;;;;1567551;74;766;-72
2021/06/21 04:44:36;;;;;;;;;;;26.90;47.40;;;;;;1571879;74;733;-72
2021/06/21 04:46:38;;;;;;;;;;;26.90;47.30;;;;;;1572017;74;769;-72
2021/06/21 04:48:41;;;;;;;;;;;26.90;47.30;;;;;;1577419;74;736;-73
2021/06/21 04:50:43;;;;;;;;;;;26.90;47.40;;;;;;1570431;74;1180;-74
2021/06/21 04:52:45;;;;;;;;;;;26.90;47.60;;;;;;1571246;74;708;-72
2021/06/21 04:54:48;;;;;;;;;;;26.90;47.40;;;;;;1572294;74;765;-74
2021/06/21 04:56:50;;;;;;;;;;;26.90;47.50;;;;;;1566826;74;728;-74
2021/06/21 04:58:52;;;;;;;;;;;26.90;47.10;;;;;;1572818;74;1932;-72
2021/06/21 05:00:53;;;;;;;;;;;26.90;47.20;;;;;;1565579;73;220136;-66
2021/06/21 05:02:55;;;;;;;;;;;26.90;47.20;;;;;;1570704;74;639;-65
2021/06/21 05:04:57;;;;;;;;;;;26.90;47.30;;;;;;1574444;74;738;-64
2021/06/21 05:06:59;;;;;;;;;;;26.90;47.30;;;;;;1577650;74;784;-69
2021/06/21 05:09:01;;;;;;;;;;;26.90;47.20;;;;;;1575072;74;749;-64
2021/06/21 05:11:03;;;;;;;;;;;26.90;47.20;;;;;;1571882;74;1183;-68
2021/06/21 05:13:05;;;;;;;;;;;26.90;47.30;;;;;;1545969;75;630;-64
2021/06/21 05:15:07;;;;;;;;;;;26.90;47.10;;;;;;1551174;75;858;-67
2021/06/21 05:17:10;;;;;;;;;;;26.90;47.10;;;;;;1555081;75;815;-64
2021/06/21 05:19:12;;;;;;;;;;;26.90;47.30;;;;;;1553168;75;1904;-65
2021/06/21 05:21:13;;;;;;;;;;;26.90;47.20;;;;;;1547752;75;1124;-64
2021/06/21 05:23:15;;;;;;;;;;;26.90;47.20;;;;;;1550083;75;802;-65
2021/06/21 05:25:17;;;;;;;;;;;27.00;47.90;;;;;;1547833;75;1072;-67
2021/06/21 05:27:19;;;;;;;;;;;26.90;47.20;;;;;;1544967;75;788;-64
2021/06/21 05:29:21;;;;;;;;;;;26.90;47.30;;;;;;1550816;75;757;-65
2021/06/21 05:31:23;;;;;;;;;;;27.00;47.90;;;;;;1563407;75;1136;-65
2021/06/21 05:33:25;;;;;;;;;;;26.90;47.20;;;;;;1563711;75;767;-66
2021/06/21 05:35:27;;;;;;;;;;;26.90;47.00;;;;;;1549143;75;752;-65
2021/06/21 05:37:29;;;;;;;;;;;26.90;46.90;;;;;;1562156;75;800;-66
2021/06/21 05:39:30;;;;;;;;;;;26.90;46.60;;;;;;1559246;75;1942;-63
2021/06/21 05:41:32;;;;;;;;;;;26.90;46.30;;;;;;1565700;74;1113;-68
2021/06/21 05:43:34;;;;;;;;;;;26.90;46.40;;;;;;1554350;75;716;-67
2021/06/21 05:45:36;;;;;;;;;;;26.80;45.80;;;;;;1557471;75;718;-64
2021/06/21 05:47:38;;;;;;;;;;;26.80;45.50;;;;;;1556009;75;758;-66
2021/06/21 05:49:40;;;;;;;;;;;26.80;45.00;;;;;;1550991;75;853;-69
2021/06/21 05:51:42;;;;;;;;;;;26.70;44.80;;;;;;1543795;75;1179;-66
2021/06/21 05:53:44;;;;;;;;;;;26.80;44.90;;;;;;1553995;75;700;-66
2021/06/21 05:55:46;;;;;;;;;;;26.70;44.80;;;;;;1556094;75;686;-72
2021/06/21 05:57:48;;;;;;;;;;;26.70;44.60;;;;;;1553414;75;666;-68
2021/06/21 05:59:49;;;;;;;;;;;26.80;44.50;;;;;;1540794;75;1944;-66
2021/06/21 06:01:51;;;;;;;;;;;26.70;44.90;;;;;;1561751;74;1174;-65
2021/06/21 06:03:53;;;;;;;;;;;26.70;44.80;;;;;;1538386;75;715;-67
2021/06/21 06:05:56;;;;;;;;;;;26.70;44.80;;;;;;1553483;75;728;-67
2021/06/21 06:07:57;;;;;;;;;;;26.70;44.70;;;;;;1554976;75;759;-64
2021/06/21 06:10:00;;;;;;;;;;;26.80;44.70;;;;;;1544578;75;798;-65
2021/06/21 06:12:02;;;;;;;;;;;26.80;44.70;;;;;;1563767;74;1158;-63
2021/06/21 06:14:03;;;;;;;;;;;26.80;44.50;;;;;;1568010;75;716;-64
2021/06/21 06:16:05;;;;;;;;;;;26.70;44.50;;;;;;1524686;75;733;-65
2021/06/21 06:18:08;;;;;;;;;;;26.70;44.50;;;;;;1568235;75;715;-65
2021/06/21 06:20:10;;;;;;;;;;;26.80;44.60;;;;;;1549469;75;1940;-65
2021/06/21 06:22:12;;;;;;;;;;;26.70;44.60;;;;;;1537979;75;1113;-65
2021/06/21 06:24:14;;;;;;;;;;;26.70;44.70;;;;;;1551834;75;752;-68
2021/06/21 06:26:16;;;;;;;;;;;26.70;44.70;;;;;;1547088;75;715;-63
2021/06/21 06:28:18;;;;;;;;;;;26.80;45.10;;;;;;1548881;75;739;-66
2021/06/21 06:30:20;;;;;;;;;;;26.70;45.20;;;;;;1545397;75;926;-68
2021/06/21 06:32:22;;;;;;;;;;;26.80;45.20;;;;;;1545443;75;1124;-66
2021/06/21 06:34:24;;;;;;;;;;;26.80;45.30;;;;;;1552655;75;787;-74
2021/06/21 06:36:26;;;;;;;;;;;26.80;45.30;;;;;;1543837;75;640;-66
2021/06/21 06:38:28;;;;;;;;;;;26.90;45.30;;;;;;1549946;75;718;-68
2021/06/21 06:40:30;;;;;;;;;;;26.90;45.30;;;;;;1549881;75;1905;-68
2021/06/21 06:42:32;;;;;;;;;;;26.90;45.40;;;;;;1546968;75;1096;-67
2021/06/21 06:44:35;;;;;;;;;;;26.90;45.40;;;;;;1547194;75;741;-66
2021/06/21 06:46:37;;;;;;;;;;;26.90;45.40;;;;;;1556626;75;769;-71
2021/06/21 06:48:39;;;;;;;;;;;26.90;45.50;;;;;;1557125;75;913;-66
2021/06/21 06:50:41;;;;;;;;;;;26.90;45.50;;;;;;1546548;75;776;-67
2021/06/21 06:52:44;;;;;;;;;;;26.90;45.50;;;;;;1546852;75;1100;-68
2021/06/21 06:57:06;;;;;;;;;;;27.00;46.10;;;;;;1549557;75;1616;-66
2021/06/21 06:59:08;;;;;;;;;;;27.00;46.10;;;;;;1550867;75;1939;-67
2021/06/21 07:01:09;;;;;;;;;;;26.90;45.50;;;;;;1547253;75;1164;-68
2021/06/21 07:03:11;;;;;;;;;;;26.90;45.50;;;;;;1551049;75;774;-71
2021/06/21 07:05:14;;;;;;;;;;;26.90;45.50;;;;;;1548502;75;1330;-70
2021/06/21 07:07:15;;;;;;;;;;;27.00;46.30;;;;;;1546788;75;759;-69
2021/06/21 07:09:17;;;;;;;;;;;26.90;45.60;;;;;;1551439;75;788;-67
2021/06/21 07:11:20;;;;;;;;;;;26.90;45.70;;;;;;1565821;74;1174;-66
2021/06/21 07:13:22;;;;;;;;;;;27.00;46.50;;;;;;1563071;75;791;-65
2021/06/21 07:15:24;;;;;;;;;;;27.00;46.40;;;;;;1567845;75;808;-66
2021/06/21 07:17:25;;;;;;;;;;;27.00;46.40;;;;;;1561254;75;804;-66
2021/06/21 07:19:27;;;;;;;;;;;27.00;46.40;;;;;;1564144;75;1932;-67
2021/06/21 07:21:29;;;;;;;;;;;27.00;46.40;;;;;;1551220;75;1125;-67
2021/06/21 07:23:31;;;;;;;;;;;27.00;46.30;;;;;;1562237;75;800;-70
2021/06/21 07:25:33;;;;;;;;;;;27.00;46.30;;;;;;1551898;75;689;-67
2021/06/21 07:27:35;;;;;;;;;;;27.00;46.30;;;;;;1559272;75;749;-68
2021/06/21 07:29:37;;;;;;;;;;;27.10;46.30;;;;;;1554049;75;809;-71
2021/06/21 07:31:39;;;;;;;;;;;27.10;46.40;;;;;;1549352;75;1118;-67
2021/06/21 07:33:41;;;;;;;;;;;27.00;46.40;;;;;;1562108;75;876;-72
2021/06/21 07:35:42;;;;;;;;;;;27.10;46.40;;;;;;1557387;75;611;-66
2021/06/21 07:37:44;;;;;;;;;;;27.10;46.30;;;;;;1551576;75;746;-67
2021/06/21 07:39:46;;;;;;;;;;;27.10;46.40;;;;;;1554591;74;1951;-68
2021/06/21 07:41:48;;;;;;;;;;;27.00;46.40;;;;;;1552886;75;1135;-68
2021/06/21 07:43:50;;;;;;;;;;;27.00;46.40;;;;;;1552578;75;889;-66
2021/06/21 07:45:52;;;;;;;;;;;27.00;46.40;;;;;;1556600;75;807;-68
2021/06/21 07:47:57;;;;;;;;;;;27.00;46.40;;;;;;1559793;74;813;-71
2021/06/21 07:49:57;;;;;;;;;;;27.10;46.40;;;;;;1548887;75;1671;-67
2021/06/21 07:51:59;;;;;;;;;;;27.00;46.40;;;;;;1552127;75;1118;-67
2021/06/21 07:54:01;;;;;;;;;;;27.00;46.30;;;;;;1553282;75;785;-69
2021/06/21 07:56:05;;;;;;;;;;;27.00;46.30;;;;;;1554981;75;770;-67
2021/06/21 07:58:07;;;;;;;;;;;27.00;46.40;;;;;;1550759;75;809;-69
2021/06/21 08:00:09;;;;;;;;;;;27.10;46.30;;;;;;1555578;75;1940;-67
2021/06/21 08:02:11;;;;;;;;;;;27.00;46.30;;;;;;1557608;74;1143;-68
2021/06/21 08:04:13;;;;;;;;;;;27.00;46.30;;;;;;1558194;75;1117;-69
2021/06/21 08:06:15;;;;;;;;;;;27.00;46.30;;;;;;1562594;75;746;-73
2021/06/21 08:08:17;;;;;;;;;;;27.10;46.30;;;;;;1549637;75;773;-69
2021/06/21 08:10:20;;;;;;;;;;;27.00;46.40;;;;;;1545807;75;733;-68
2021/06/21 08:12:22;;;;;;;;;;;27.10;46.30;;;;;;1564816;74;1127;-68
2021/06/21 08:14:23;;;;;;;;;;;27.00;46.30;;;;;;1568751;75;690;-70
2021/06/21 08:16:26;;;;;;;;;;;27.10;46.30;;;;;;1554185;75;737;-66
2021/06/21 08:18:28;;;;;;;;;;;27.10;46.30;;;;;;1564420;75;825;-71
2021/06/21 08:20:30;;;;;;;;;;;27.00;46.30;;;;;;1564492;75;1940;-68
2021/06/21 08:22:32;;;;;;;;;;;27.00;46.30;;;;;;1552823;75;1136;-69
2021/06/21 08:24:33;;;;;;;;;;;27.10;46.40;;;;;;1546513;75;771;-67
2021/06/21 08:26:35;;;;;;;;;;;27.10;46.40;;;;;;1551352;75;705;-67
2021/06/21 08:28:37;;;;;;;;;;;27.10;46.40;;;;;;1559574;75;752;-68
2021/06/21 08:30:39;;;;;;;;;;;27.10;46.40;;;;;;1567361;75;787;-70
2021/06/21 08:32:41;;;;;;;;;;;27.10;46.40;;;;;;1548355;75;1061;-67
2021/06/21 08:34:43;;;;;;;;;;;27.10;46.40;;;;;;1545332;75;794;-69
2021/06/21 08:36:45;;;;;;;;;;;27.10;46.40;;;;;;1546603;75;723;-70
2021/06/21 08:38:47;;;;;;;;;;;27.10;46.40;;;;;;1549845;75;768;-67
2021/06/21 08:40:49;;;;;;;;;;;27.10;46.50;;;;;;1546047;75;1940;-66
2021/06/21 08:42:51;;;;;;;;;;;27.10;46.50;;;;;;1553853;75;784;-64
2021/06/21 08:44:52;;;;;;;;;;;27.10;46.50;;;;;;1551244;75;762;-67
2021/06/21 08:46:54;;;;;;;;;;;27.10;46.50;;;;;;1541442;75;711;-69
2021/06/21 08:48:56;;;;;;;;;;;27.10;46.50;;;;;;1550464;75;642;-68
2021/06/21 08:51:01;;;;;;;;;;;27.10;46.50;;;;;;1551173;75;1124;-69
2021/06/21 08:53:03;;;;;;;;;;;27.10;46.50;;;;;;1555186;75;731;-67
2021/06/21 08:55:06;;;;;;;;;;;27.10;46.50;;;;;;1554050;75;932;-67
2021/06/21 08:57:08;;;;;;;;;;;27.10;46.50;;;;;;1543359;75;760;-68
2021/06/21 08:59:10;;;;;;;;;;;27.10;46.50;;;;;;1551567;75;747;-68
2021/06/21 09:01:12;;;;;;;;;;;27.10;46.50;;;;;;1546946;75;1939;-68
2021/06/21 09:03:14;;;;;;;;;;;27.10;46.50;;;;;;1551305;75;745;-68
2021/06/21 09:05:16;;;;;;;;;;;27.10;46.50;;;;;;1548956;75;749;-68
2021/06/21 09:07:19;;;;;;;;;;;27.10;46.50;;;;;;1550097;75;805;-68
2021/06/21 09:09:21;;;;;;;;;;;27.10;46.50;;;;;;1546773;75;900;-69
2021/06/21 09:11:41;;;;;;;;;;;27.10;46.50;;;;;;1544625;75;1153;-72
2021/06/21 09:13:43;;;;;;;;;;;27.10;46.40;;;;;;1564305;75;777;-72
2021/06/21 09:15:53;;;;;;;;;;;27.10;46.50;;;;;;1563836;75;777;-68
2021/06/21 09:17:57;;;;;;;;;;;27.10;46.50;;;;;;1558052;75;730;-68
2021/06/21 09:19:59;;;;;;;;;;;27.10;46.50;;;;;;1548764;75;1935;-68
2021/06/21 09:22:01;;;;;;;;;;;27.10;46.50;;;;;;1563146;75;1149;-68
2021/06/21 09:24:05;;;;;;;;;;;27.10;46.50;;;;;;1558529;75;719;-66
2021/06/21 09:26:20;;;;;;;;;;;27.10;46.50;;;;;;1550350;75;1865;-68
2021/06/21 09:28:23;;;;;;;;;;;27.10;46.50;;;;;;1542727;75;718;-67
2021/06/21 09:30:25;;;;;;;;;;;27.10;46.50;;;;;;1549752;75;1679;-67
2021/06/21 09:32:43;;;;;;;;;;;27.10;46.50;;;;;;1549060;74;1135;-65
2021/06/21 09:34:45;;;;;;;;;;;27.10;46.60;;;;;;1559397;75;760;-67
2021/06/21 09:36:47;;;;;;;;;;;27.10;46.60;;;;;;1559596;75;814;-67
2021/06/21 09:38:53;;;;;;;;;;;27.10;46.60;;;;;;1565244;75;689;-67
2021/06/21 09:40:55;;;;;;;;;;;27.10;46.50;;;;;;1541883;75;1936;-66
2021/06/21 09:42:57;;;;;;;;;;;27.10;46.50;;;;;;1554170;75;827;-70
2021/06/21 09:45:03;;;;;;;;;;;27.10;46.50;;;;;;1560638;75;758;-71
2021/06/21 09:47:11;;;;;;;;;;;27.10;46.50;;;;;;1551707;75;782;-68
2021/06/21 09:49:13;;;;;;;;;;;27.10;46.50;;;;;;1549223;75;738;-67
2021/06/21 09:51:25;;;;;;;;;;;27.10;46.60;;;;;;1554906;74;1163;-68
2021/06/21 09:53:27;;;;;;;;;;;27.10;46.50;;;;;;1553310;75;777;-68
2021/06/21 09:55:31;;;;;;;;;;;27.10;46.50;;;;;;1553569;75;744;-67
2021/06/21 09:57:33;;;;;;;;;;;27.10;46.50;;;;;;1556332;75;766;-67
2021/06/21 09:59:37;;;;;;;;;;;27.10;46.50;;;;;;1567774;75;716;-69
2021/06/21 10:01:39;;;;;;;;;;;27.10;46.50;;;;;;1560439;75;1907;-67
2021/06/21 10:03:44;;;;;;;;;;;27.10;46.50;;;;;;1564436;75;790;-67
2021/06/21 10:05:46;;;;;;;;;;;27.10;46.50;;;;;;1568022;75;1672;-68
2021/06/21 10:07:48;;;;;;;;;;;27.10;46.50;;;;;;1554032;75;947;-67
2021/06/21 10:09:57;;;;;;;;;;;27.10;46.50;;;;;;1549566;75;668;-65
2021/06/21 10:11:59;;;;;;;;;;;27.10;46.50;;;;;;1547830;75;1141;-68
2021/06/21 10:14:02;;;;;;;;;;;27.10;46.60;;;;;;1551194;75;745;-66
2021/06/21 10:16:04;;;;;;;;;;;27.10;46.10;;;;;;1530733;75;804;-69
2021/06/21 10:18:06;;;;;;;;;;;27.10;46.50;;;;;;1545866;75;684;-67
2021/06/21 10:20:08;;;;;;;;;;;27.10;46.60;;;;;;1549002;75;1929;-67
2021/06/21 10:22:10;;;;;;;;;;;27.10;46.50;;;;;;1547239;75;1211;-67
2021/06/21 10:24:12;;;;;;;;;;;27.20;46.50;;;;;;1556839;75;719;-75
2021/06/21 10:26:14;;;;;;;;;;;27.20;46.50;;;;;;1554564;75;675;-70
2021/06/21 10:28:16;;;;;;;;;;;27.20;46.50;;;;;;1542097;75;779;-68
2021/06/21 10:30:19;;;;;;;;;;;27.20;46.50;;;;;;1548400;75;784;-69
2021/06/21 10:32:20;;;;;;;;;;;27.20;46.50;;;;;;1548535;75;1058;-69
2021/06/21 10:34:22;;;;;;;;;;;27.20;46.40;;;;;;1558099;75;769;-69
2021/06/21 10:36:26;;;;;;;;;;;27.20;46.30;;;;;;1543682;75;789;-72
2021/06/21 10:38:28;;;;;;;;;;;27.30;46.30;;;;;;1544947;75;1861;-68
2021/06/21 10:40:30;;;;;;;;;;;27.30;46.30;;;;;;1551583;75;1947;-69
2021/06/21 10:42:36;;;;;;;;;;;27.30;46.30;;;;;;1553046;75;1125;-72
2021/06/21 10:44:36;;;;;;;;;;;27.30;46.30;;;;;;1544961;75;1634;-71
2021/06/21 10:46:37;;;;;;;;;;;27.30;46.20;;;;;;1548634;75;686;-70
2021/06/21 10:48:39;;;;;;;;;;;27.30;46.20;;;;;;1552090;75;720;-71
2021/06/21 10:50:48;;;;;;;;;;;27.30;46.30;;;;;;1565499;75;804;-70
2021/06/21 10:52:52;;;;;;;;;;;27.30;46.10;;;;;;1550485;75;1016;-66
2021/06/21 10:54:54;;;;;;;;;;;27.20;46.00;;;;;;1556581;75;772;-68
2021/06/21 10:56:56;;;;;;;;;;;27.20;45.10;;;;;;1558718;75;682;-70
2021/06/21 10:59:03;;;;;;;;;;;27.20;44.20;;;;;;1550563;75;757;-68
2021/06/21 11:01:24;;;;;;;;;;;27.10;43.60;;;;;;1546096;74;1923;-67
2021/06/21 11:03:33;;;;;;;;;;;27.10;43.10;;;;;;1586117;74;690;-73
2021/06/21 11:05:36;;;;;;;;;;;27.00;44.00;;;;;;1587608;74;1044;-74
2021/06/21 11:07:37;;;;;;;;;;;26.90;43.40;;;;;;1590573;74;700;-73
2021/06/21 11:09:50;;;;;;;;;;;26.90;43.60;;;;;;1576650;74;698;-74
2021/06/21 11:11:52;;;;;;;;;;;27.00;44.20;;;;;;1599908;73;1190;-73
2021/06/21 11:13:55;;;;;;;;;;;27.00;44.50;;;;;;1612472;73;709;-74
2021/06/21 11:16:05;;;;;;;;;;;27.00;44.00;;;;;;1606420;73;1024;-74
2021/06/21 11:18:07;;;;;;;;;;;27.10;43.10;;;;;;1587185;73;965;-73
2021/06/21 11:20:27;;;;;;;;;;;27.10;43.00;;;;;;1563358;74;1252;-76
2021/06/21 11:22:47;;;;;;;;;;;27.10;42.30;;;;;;1536912;76;1251;-77
2021/06/21 11:24:49;;;;;;;;;;;27.20;42.20;;;;;;1584132;73;773;-71
2021/06/21 11:27:02;;;;;;;;;;;27.10;41.10;;;;;;1591565;73;773;-74
2021/06/21 11:29:04;;;;;;;;;;;27.20;41.00;;;;;;1595381;73;1025;-73
2021/06/21 11:31:24;;;;;;;;;;;27.20;40.70;;;;;;1571734;75;1174;-71
2021/06/21 11:33:26;;;;;;;;;;;27.10;40.90;;;;;;1586490;73;682;-74
2021/06/21 11:35:48;;;;;;;;;;;27.10;41.40;;;;;;1572325;75;709;-71
2021/06/21 11:37:51;;;;;;;;;;;27.10;41.80;;;;;;1595503;73;733;-73
2021/06/21 11:39:54;;;;;;;;;;;27.10;41.90;;;;;;1597793;73;765;-75
2021/06/21 11:41:59;;;;;;;;;;;27.10;41.60;;;;;;1599069;73;1945;-77
2021/06/21 11:44:01;;;;;;;;;;;27.10;41.20;;;;;;1590877;73;689;-76
2021/06/21 11:46:03;;;;;;;;;;;27.10;41.00;;;;;;1594494;73;811;-75
2021/06/21 11:48:05;;;;;;;;;;;27.10;41.60;;;;;;1609350;73;716;-72
2021/06/21 11:50:13;;;;;;;;;;;27.10;41.00;;;;;;1589721;73;707;-77
2021/06/21 11:52:19;;;;;;;;;;;27.10;40.50;;;;;;1596369;73;1214;-83
2021/06/21 11:54:21;;;;;;;;;;;27.20;41.40;;;;;;1596624;73;731;-80
2021/06/21 11:56:24;;;;;;;;;;;27.20;41.70;;;;;;1596868;73;680;-74
2021/06/21 11:58:27;;;;;;;;;;;27.20;41.70;;;;;;1597831;73;713;-75
2021/06/21 12:00:36;;;;;;;;;;;27.20;42.20;;;;;;1569715;75;1936;-80
2021/06/21 12:02:38;;;;;;;;;;;27.20;42.40;;;;;;1538536;76;1141;-76
2021/06/21 12:04:40;;;;;;;;;;;27.10;42.40;;;;;;1545968;76;742;-73
2021/06/21 12:06:42;;;;;;;;;;;27.20;42.90;;;;;;1543252;76;789;-70
2021/06/21 12:08:44;;;;;;;;;;;27.10;43.20;;;;;;1551083;76;704;-69
2021/06/21 12:10:46;;;;;;;;;;;27.20;43.10;;;;;;1587932;73;707;-69
2021/06/21 12:12:49;;;;;;;;;;;27.20;43.60;;;;;;1594133;72;1157;-70
2021/06/21 12:14:51;;;;;;;;;;;27.40;43.60;;;;;;1597231;73;740;-70
2021/06/21 12:17:05;;;;;;;;;;;27.40;43.80;;;;;;1591475;73;707;-73